Time;durP1;ratioP1;P1;durP2;ratioP2;P2;SDS_P1;SDS_P2;PMS_P1;PMS_P2;Temp;Humidity;BMP_temperature;BMP_pressure;BME280_temperature;BME280_humidity;BME280_pressure;Samples;Min_cycle;Max_cycle;Signal;HPM_P1;HPM_P2
2022/02/21 00:00:36;;;;;;;5.20;4.30;;;16.40;66.40;;;;;;5064709;28;20117;-20
2022/02/21 00:03:02;;;;;;;4.18;3.50;;;16.40;66.40;;;;;;5065281;28;20124;-20
2022/02/21 00:05:28;;;;;;;5.32;3.67;;;16.40;66.60;;;;;;5061208;28;20044;-19
2022/02/21 00:07:53;;;;;;;4.78;4.03;;;16.40;66.50;;;;;;5063612;28;20060;-19
2022/02/21 00:10:19;;;;;;;5.30;4.00;;;16.40;66.50;;;;;;5063924;28;20094;-19
2022/02/21 00:12:44;;;;;;;5.00;3.95;;;16.40;66.60;;;;;;5064147;28;20405;-19
2022/02/21 00:15:13;;;;;;;5.72;3.38;;;16.40;66.50;;;;;;5063070;28;20045;-21
2022/02/21 00:17:38;;;;;;;6.05;3.33;;;16.40;66.50;;;;;;5066453;28;20127;-20
2022/02/21 00:20:04;;;;;;;3.75;3.38;;;16.40;66.50;;;;;;5064375;28;20076;-20
2022/02/21 00:22:30;;;;;;;5.50;3.58;;;16.40;66.60;;;;;;5064972;28;20052;-19
2022/02/21 00:24:56;;;;;;;4.30;3.30;;;16.40;66.50;;;;;;5066561;28;20044;-20
2022/02/21 00:27:21;;;;;;;4.13;3.30;;;16.30;66.60;;;;;;5068064;28;20106;-20
2022/02/21 00:29:48;;;;;;;4.97;4.00;;;16.30;66.70;;;;;;5067708;28;20047;-21
2022/02/21 00:32:13;;;;;;;3.72;3.22;;;16.30;66.70;;;;;;5053500;28;20118;-20
2022/02/21 00:34:39;;;;;;;4.93;3.40;;;16.30;66.60;;;;;;5052121;28;20052;-21
2022/02/21 00:37:05;;;;;;;4.10;3.50;;;16.30;66.70;;;;;;5073073;28;20135;-20
2022/02/21 00:39:30;;;;;;;4.43;3.58;;;16.30;66.80;;;;;;5069519;28;20127;-21
2022/02/21 00:41:56;;;;;;;4.28;3.22;;;16.30;66.80;;;;;;5074785;28;20083;-21
2022/02/21 00:44:22;;;;;;;6.97;3.72;;;16.30;66.70;;;;;;5074104;28;20052;-21
2022/02/21 00:46:47;;;;;;;3.80;3.40;;;16.30;66.90;;;;;;5071352;28;20049;-21
2022/02/21 00:49:13;;;;;;;3.45;3.10;;;16.30;66.80;;;;;;5057464;28;20044;-21
2022/02/21 00:51:39;;;;;;;4.13;3.08;;;16.30;66.80;;;;;;5074817;28;20041;-21
2022/02/21 00:54:04;;;;;;;4.82;3.33;;;16.30;66.70;;;;;;5063432;28;20532;-21
2022/02/21 00:56:30;;;;;;;5.82;3.90;;;16.30;66.70;;;;;;5074885;28;20047;-21
2022/02/21 00:58:55;;;;;;;4.50;3.40;;;16.30;66.70;;;;;;5074797;28;20060;-21
2022/02/21 01:01:21;;;;;;;5.65;3.50;;;16.30;66.70;;;;;;5069141;28;20049;-21
2022/02/21 01:03:47;;;;;;;5.50;3.47;;;16.30;66.60;;;;;;5056269;28;20041;-21
2022/02/21 01:06:12;;;;;;;3.70;3.25;;;16.30;66.70;;;;;;5058848;28;20049;-21
2022/02/21 01:08:38;;;;;;;3.55;2.90;;;16.30;66.70;;;;;;5065109;28;20047;-21
2022/02/21 01:11:03;;;;;;;3.72;3.35;;;16.30;66.70;;;;;;5054079;28;20037;-23
2022/02/21 01:13:29;;;;;;;3.85;3.20;;;16.30;66.60;;;;;;5054670;28;20513;-21
2022/02/21 01:15:55;;;;;;;3.30;3.00;;;16.30;66.70;;;;;;5054682;28;20037;-21
2022/02/21 01:18:21;;;;;;;3.38;3.03;;;16.30;66.60;;;;;;5053979;28;20087;-21
2022/02/21 01:20:47;;;;;;;3.70;3.00;;;16.30;66.60;;;;;;5055071;28;20049;-21
2022/02/21 01:23:12;;;;;;;5.43;3.65;;;16.40;66.70;;;;;;5055162;28;20045;-21
2022/02/21 01:25:38;;;;;;;4.95;3.05;;;16.30;66.50;;;;;;5073766;28;20032;-21
2022/02/21 01:28:03;;;;;;;4.18;3.00;;;16.30;66.70;;;;;;5055223;28;20498;-21
2022/02/21 01:30:29;;;;;;;5.18;3.33;;;16.30;66.70;;;;;;5054742;28;20045;-21
2022/02/21 01:32:55;;;;;;;3.20;2.83;;;16.30;66.50;;;;;;5054938;28;20080;-21
2022/02/21 01:35:20;;;;;;;3.75;2.92;;;16.30;66.70;;;;;;5052801;28;20056;-21
2022/02/21 01:37:46;;;;;;;3.60;2.50;;;16.30;66.70;;;;;;5054608;28;20513;-21
2022/02/21 01:40:12;;;;;;;4.40;2.90;;;16.30;66.60;;;;;;5072210;28;20048;-20
2022/02/21 01:42:38;;;;;;;5.70;2.95;;;16.40;66.50;;;;;;5057802;28;20055;-21
2022/02/21 01:45:04;;;;;;;4.13;2.95;;;16.30;66.60;;;;;;5058067;28;20068;-21
2022/02/21 01:47:30;;;;;;;2.90;2.60;;;16.30;66.60;;;;;;5074098;28;20052;-21
2022/02/21 01:49:55;;;;;;;4.35;3.10;;;16.30;66.60;;;;;;5078104;28;20032;-21
2022/02/21 01:52:21;;;;;;;3.88;2.92;;;16.30;66.70;;;;;;5077440;28;20413;-21
2022/02/21 01:54:47;;;;;;;5.07;2.30;;;16.30;66.70;;;;;;5064665;28;20048;-21
2022/02/21 01:57:12;;;;;;;4.40;2.65;;;16.30;66.50;;;;;;5057215;28;20064;-21
2022/02/21 01:59:38;;;;;;;3.90;2.80;;;16.30;66.60;;;;;;5057775;28;20049;-20
2022/02/21 02:02:05;;;;;;;2.78;2.40;;;16.30;66.60;;;;;;5057760;28;20048;-21
2022/02/21 02:04:31;;;;;;;4.45;2.80;;;16.30;66.60;;;;;;5067670;28;20504;-21
2022/02/21 02:06:57;;;;;;;2.72;2.35;;;16.20;66.70;;;;;;5071229;28;20064;-21
2022/02/21 02:09:22;;;;;;;2.88;2.30;;;16.20;66.70;;;;;;5069806;28;20040;-21
2022/02/21 02:11:48;;;;;;;3.90;2.42;;;16.20;66.90;;;;;;5071440;28;20045;-21
2022/02/21 02:14:37;;;;;;;2.53;2.28;;;16.20;67.00;;;;;;5068621;28;20421;-21
2022/02/21 02:17:07;;;;;;;2.90;2.40;;;16.20;66.90;;;;;;5071292;28;20049;-21
2022/02/21 02:19:32;;;;;;;2.95;2.42;;;16.20;66.70;;;;;;5065070;28;20406;-21
2022/02/21 02:22:09;;;;;;;2.00;1.83;;;16.20;66.80;;;;;;5067132;28;20044;-21
2022/02/21 02:24:35;;;;;;;3.60;2.38;;;16.20;66.80;;;;;;5071102;28;20040;-21
2022/02/21 02:27:00;;;;;;;2.58;2.38;;;16.20;66.90;;;;;;5065182;28;20037;-21
2022/02/21 02:29:26;;;;;;;4.32;2.30;;;16.20;66.90;;;;;;5065202;28;20390;-21
2022/02/21 02:31:51;;;;;;;2.08;1.80;;;16.10;67.00;;;;;;5066779;28;20056;-21
2022/02/21 02:34:17;;;;;;;2.55;2.15;;;16.10;67.10;;;;;;5063972;28;20131;-21
2022/02/21 02:36:46;;;;;;;3.05;2.40;;;16.10;67.10;;;;;;5066495;28;20045;-21
2022/02/21 02:39:12;;;;;;;2.70;2.25;;;16.10;67.10;;;;;;5068776;28;20037;-22
2022/02/21 02:41:40;;;;;;;3.42;2.30;;;16.20;66.90;;;;;;5063302;28;20493;-21
2022/02/21 02:44:06;;;;;;;2.50;1.85;;;16.20;67.10;;;;;;5065410;28;20043;-22
2022/02/21 02:46:31;;;;;;;3.58;1.90;;;16.20;67.10;;;;;;5066015;28;20564;-21
2022/02/21 02:48:57;;;;;;;3.15;2.25;;;16.10;66.90;;;;;;5064475;28;20489;-21
2022/02/21 02:51:22;;;;;;;2.40;2.15;;;16.20;67.00;;;;;;5065021;28;20040;-21
2022/02/21 02:53:48;;;;;;;2.55;2.03;;;16.10;67.10;;;;;;5064454;28;20102;-21
2022/02/21 02:56:13;;;;;;;2.30;2.10;;;16.10;67.20;;;;;;5069716;28;20515;-22
2022/02/21 02:58:39;;;;;;;3.13;2.05;;;16.10;67.10;;;;;;5076531;28;20063;-21
2022/02/21 03:01:05;;;;;;;2.78;1.85;;;16.10;67.00;;;;;;5076841;28;20064;-21
2022/02/21 03:03:31;;;;;;;2.10;1.80;;;16.10;67.20;;;;;;5075165;28;20037;-21
2022/02/21 03:05:57;;;;;;;2.25;2.00;;;16.10;67.30;;;;;;5058701;28;20045;-21
2022/02/21 03:08:23;;;;;;;2.40;2.20;;;16.10;67.30;;;;;;5062121;28;20069;-21
2022/02/21 03:10:48;;;;;;;2.50;2.22;;;16.10;67.20;;;;;;5071961;28;20041;-21
2022/02/21 03:13:14;;;;;;;2.42;2.22;;;16.10;67.20;;;;;;5075678;28;20040;-21
2022/02/21 03:15:40;;;;;;;2.85;1.90;;;16.10;67.40;;;;;;5069690;28;20049;-21
2022/02/21 03:18:05;;;;;;;2.35;2.15;;;16.10;67.30;;;;;;5069810;28;20064;-21
2022/02/21 03:20:31;;;;;;;3.30;2.20;;;16.10;67.10;;;;;;5064386;28;20056;-21
2022/02/21 03:22:56;;;;;;;2.30;2.03;;;16.10;67.20;;;;;;5060784;28;20040;-21
2022/02/21 03:25:22;;;;;;;1.83;1.73;;;16.10;67.20;;;;;;5058962;28;20068;-22
2022/02/21 03:27:47;;;;;;;2.95;2.00;;;16.10;67.30;;;;;;5057580;28;20073;-21
2022/02/21 03:30:13;;;;;;;1.58;1.48;;;16.10;67.20;;;;;;5055624;28;20075;-21
2022/02/21 03:32:39;;;;;;;2.40;2.20;;;16.10;67.10;;;;;;5056454;28;20390;-21
2022/02/21 03:35:05;;;;;;;2.10;1.70;;;16.10;67.10;;;;;;5061698;28;20482;-21
2022/02/21 03:37:32;;;;;;;2.20;2.00;;;16.20;66.80;;;;;;5060746;28;20053;-21
2022/02/21 03:39:57;;;;;;;1.92;1.70;;;16.20;67.00;;;;;;5059055;28;20106;-21
2022/02/21 03:42:23;;;;;;;2.22;1.70;;;16.20;66.80;;;;;;5074560;28;20041;-22
2022/02/21 03:44:48;;;;;;;2.80;2.33;;;16.20;66.80;;;;;;5075431;28;20054;-21
2022/02/21 03:47:14;;;;;;;1.75;1.65;;;16.20;66.70;;;;;;5055364;28;20118;-21
2022/02/21 03:49:39;;;;;;;1.70;1.50;;;16.20;66.90;;;;;;5054164;28;20078;-21
2022/02/21 03:52:06;;;;;;;2.05;1.80;;;16.20;66.70;;;;;;5055512;28;20041;-21
2022/02/21 03:54:31;;;;;;;2.22;1.33;;;16.10;66.90;;;;;;5061138;28;20504;-21
2022/02/21 03:56:57;;;;;;;2.15;1.92;;;16.10;66.90;;;;;;5072157;28;20406;-21
2022/02/21 03:59:23;;;;;;;1.80;1.42;;;16.10;66.90;;;;;;5056363;28;20037;-21
2022/02/21 04:01:49;;;;;;;1.85;1.65;;;16.20;66.70;;;;;;5055645;28;20037;-21
2022/02/21 04:04:14;;;;;;;1.77;1.67;;;16.20;66.60;;;;;;5061043;28;20062;-21
2022/02/21 04:06:41;;;;;;;2.80;1.75;;;16.20;66.60;;;;;;5072496;28;20105;-21
2022/02/21 04:09:06;;;;;;;2.75;2.03;;;16.20;66.70;;;;;;5057892;28;20045;-21
2022/02/21 04:11:32;;;;;;;2.17;1.90;;;16.20;66.60;;;;;;5074857;28;20194;-21
2022/02/21 04:13:57;;;;;;;2.00;1.80;;;16.20;66.80;;;;;;5075122;28;20078;-21
2022/02/21 04:16:23;;;;;;;1.70;1.60;;;16.20;66.60;;;;;;5074871;28;20043;-21
2022/02/21 04:18:49;;;;;;;2.75;1.58;;;16.20;66.60;;;;;;5075299;28;20059;-21
2022/02/21 04:21:14;;;;;;;1.38;1.27;;;16.20;66.60;;;;;;5074983;28;20541;-22
2022/02/21 04:23:40;;;;;;;1.95;1.70;;;16.20;66.60;;;;;;5056326;28;20048;-21
2022/02/21 04:26:06;;;;;;;1.63;1.40;;;16.20;66.70;;;;;;5072152;28;20055;-21
2022/02/21 04:28:31;;;;;;;2.00;1.67;;;16.20;66.70;;;;;;5074581;28;20473;-21
2022/02/21 04:30:57;;;;;;;1.83;1.58;;;16.20;66.70;;;;;;5075016;28;20072;-21
2022/02/21 04:33:22;;;;;;;2.20;1.80;;;16.20;66.70;;;;;;5067598;28;20057;-21
2022/02/21 04:35:48;;;;;;;1.55;1.45;;;16.20;66.50;;;;;;5058352;28;20497;-21
2022/02/21 04:38:15;;;;;;;1.55;1.45;;;16.20;66.60;;;;;;5075100;28;20132;-21
2022/02/21 04:40:41;;;;;;;2.88;1.73;;;16.20;66.60;;;;;;5068326;28;20045;-21
2022/02/21 04:43:07;;;;;;;2.30;1.50;;;16.20;66.70;;;;;;5074977;28;20041;-21
2022/02/21 04:45:32;;;;;;;2.05;1.77;;;16.20;66.90;;;;;;5074613;28;20073;-21
2022/02/21 04:47:58;;;;;;;1.85;1.70;;;16.10;66.90;;;;;;5075179;28;20043;-21
2022/02/21 04:50:24;;;;;;;2.08;1.60;;;16.10;66.90;;;;;;5074580;28;20076;-21
2022/02/21 04:52:49;;;;;;;1.85;1.52;;;16.10;66.80;;;;;;5071644;28;20043;-21
2022/02/21 04:55:15;;;;;;;1.67;1.58;;;16.10;66.70;;;;;;5064106;28;20131;-21
2022/02/21 04:57:41;;;;;;;1.98;1.55;;;16.10;66.70;;;;;;5062794;28;20049;-21
2022/02/21 05:00:08;;;;;;;2.45;1.70;;;16.10;66.80;;;;;;5055011;28;20052;-21
2022/02/21 05:02:34;;;;;;;2.42;1.65;;;16.20;66.80;;;;;;5054467;28;20059;-21
2022/02/21 05:04:59;;;;;;;2.95;1.60;;;16.20;66.70;;;;;;5066605;28;20131;-21
2022/02/21 05:07:25;;;;;;;1.80;1.23;;;16.20;66.70;;;;;;5064631;28;20086;-21
2022/02/21 05:09:50;;;;;;;1.63;1.50;;;16.20;66.70;;;;;;5058777;28;20048;-21
2022/02/21 05:12:16;;;;;;;1.65;1.30;;;16.20;66.70;;;;;;5074706;28;20113;-21
2022/02/21 05:14:42;;;;;;;2.22;1.50;;;16.20;66.70;;;;;;5064150;28;20053;-21
2022/02/21 05:17:07;;;;;;;2.33;1.65;;;16.10;66.80;;;;;;5058971;28;20049;-21
2022/02/21 05:19:33;;;;;;;1.83;1.30;;;16.10;66.90;;;;;;5066962;28;20052;-21
2022/02/21 05:21:58;;;;;;;2.65;1.35;;;16.10;66.80;;;;;;5070239;28;20056;-21
2022/02/21 05:24:25;;;;;;;1.50;1.33;;;16.10;66.80;;;;;;5057824;28;20045;-21
2022/02/21 05:26:51;;;;;;;2.08;1.55;;;16.10;66.80;;;;;;5076714;28;20044;-21
2022/02/21 05:29:17;;;;;;;2.22;1.33;;;16.10;66.90;;;;;;5074720;28;20037;-21
2022/02/21 05:31:42;;;;;;;3.35;1.40;;;16.10;66.90;;;;;;5063194;28;20090;-21
2022/02/21 05:34:08;;;;;;;1.73;1.27;;;16.00;66.90;;;;;;5059095;28;20044;-21
2022/02/21 05:36:34;;;;;;;1.63;1.25;;;16.00;66.90;;;;;;5077686;28;20036;-21
2022/02/21 05:38:59;;;;;;;3.40;1.85;;;16.10;66.90;;;;;;5067838;28;20053;-23
2022/02/21 05:41:25;;;;;;;2.13;1.38;;;16.10;67.00;;;;;;5062381;28;20037;-21
2022/02/21 05:43:50;;;;;;;1.77;1.30;;;16.10;66.90;;;;;;5057948;28;20535;-22
2022/02/21 05:46:16;;;;;;;1.80;1.35;;;16.00;66.80;;;;;;5057997;28;20044;-21
2022/02/21 05:48:42;;;;;;;1.58;1.40;;;16.10;66.90;;;;;;5056182;28;20846;-21
2022/02/21 05:51:07;;;;;;;2.53;1.55;;;16.10;66.90;;;;;;5058176;28;20041;-20
2022/02/21 05:53:33;;;;;;;1.85;1.20;;;16.00;66.80;;;;;;5057258;28;20497;-23
2022/02/21 05:55:58;;;;;;;2.58;1.55;;;16.10;67.00;;;;;;5058785;28;20048;-21
2022/02/21 05:58:24;;;;;;;3.08;1.48;;;16.10;66.80;;;;;;5067780;28;20558;-21
2022/02/21 06:00:50;;;;;;;2.05;1.50;;;16.00;66.80;;;;;;5067369;28;20513;-21
2022/02/21 06:03:16;;;;;;;1.95;1.40;;;16.10;66.70;;;;;;5057859;28;20183;-21
2022/02/21 06:05:43;;;;;;;3.17;1.60;;;16.10;66.90;;;;;;5064234;28;20135;-21
2022/02/21 06:08:09;;;;;;;1.80;1.70;;;16.00;66.80;;;;;;5074694;28;20048;-21
2022/02/21 06:10:34;;;;;;;1.70;1.33;;;16.00;67.00;;;;;;5070691;28;20056;-21
2022/02/21 06:13:00;;;;;;;2.00;1.63;;;16.00;67.10;;;;;;5069606;28;20055;-21
2022/02/21 06:15:25;;;;;;;2.40;1.67;;;16.00;67.40;;;;;;5066924;28;20045;-21
2022/02/21 06:17:53;;;;;;;1.65;1.40;;;16.00;67.50;;;;;;5067689;28;20459;-20
2022/02/21 06:20:18;;;;;;;1.52;1.33;;;16.00;67.60;;;;;;5061261;28;20076;-21
2022/02/21 06:22:44;;;;;;;1.92;1.48;;;16.00;67.50;;;;;;5056733;28;20049;-22
2022/02/21 06:25:09;;;;;;;1.30;1.20;;;16.00;67.50;;;;;;5057272;28;20053;-21
2022/02/21 06:27:35;;;;;;;1.95;1.60;;;16.00;67.60;;;;;;5073966;28;20052;-21
2022/02/21 06:30:01;;;;;;;2.13;1.60;;;16.00;67.80;;;;;;5057731;28;20044;-21
2022/02/21 06:32:27;;;;;;;3.17;1.45;;;16.00;67.90;;;;;;5073677;28;20041;-20
2022/02/21 06:34:52;;;;;;;1.20;1.10;;;16.00;67.80;;;;;;5067239;28;20040;-21
2022/02/21 06:37:18;;;;;;;2.87;1.50;;;16.00;67.80;;;;;;4715815;28;9999823;-21
2022/02/21 06:39:44;;;;;;;3.05;1.15;;;16.00;67.80;;;;;;5070407;28;20052;-21
2022/02/21 06:42:10;;;;;;;1.70;1.27;;;16.00;67.60;;;;;;5072283;28;20052;-20
2022/02/21 06:44:36;;;;;;;4.22;1.17;;;16.00;67.80;;;;;;5070347;28;20055;-21
2022/02/21 06:47:02;;;;;;;3.10;1.35;;;16.10;68.00;;;;;;5073196;28;20068;-22
2022/02/21 06:49:27;;;;;;;2.92;1.50;;;16.10;68.00;;;;;;5072527;28;20104;-23
2022/02/21 06:51:54;;;;;;;2.65;1.70;;;16.10;68.20;;;;;;5069425;28;20068;-21
2022/02/21 06:54:19;;;;;;;1.90;1.33;;;16.10;68.00;;;;;;5066719;28;20075;-22
2022/02/21 06:56:45;;;;;;;3.75;1.30;;;16.00;67.80;;;;;;5062942;28;20044;-21
2022/02/21 06:59:11;;;;;;;5.80;1.40;;;16.00;67.90;;;;;;5068889;28;20178;-21
2022/02/21 07:01:36;;;;;;;2.47;1.45;;;16.00;68.20;;;;;;5070605;28;20102;-21
2022/02/21 07:04:02;;;;;;;2.95;1.33;;;16.00;68.20;;;;;;5071294;28;20052;-21
2022/02/21 07:06:27;;;;;;;4.68;1.23;;;16.10;68.10;;;;;;5066966;28;20589;-21
2022/02/21 07:08:53;;;;;;;3.25;1.67;;;16.10;68.50;;;;;;5059220;28;20071;-21
2022/02/21 07:11:19;;;;;;;4.47;1.60;;;16.10;68.50;;;;;;5069145;28;20039;-21
2022/02/21 07:13:44;;;;;;;2.90;1.40;;;16.00;68.70;;;;;;5055730;28;20052;-21
2022/02/21 07:16:10;;;;;;;2.15;1.58;;;16.00;69.10;;;;;;5060604;28;20128;-22
2022/02/21 07:18:37;;;;;;;2.53;1.40;;;16.10;69.20;;;;;;5055686;28;20537;-21
2022/02/21 07:21:06;;;;;;;1.70;1.42;;;16.10;69.20;;;;;;5072007;28;20044;-21
2022/02/21 07:23:32;;;;;;;2.58;1.40;;;16.10;69.20;;;;;;5074782;28;20048;-21
2022/02/21 07:25:57;;;;;;;3.75;1.27;;;16.10;69.50;;;;;;5076205;28;20505;-21
2022/02/21 07:28:23;;;;;;;3.90;1.60;;;16.00;69.90;;;;;;5068638;28;20048;-20
2022/02/21 07:30:49;;;;;;;3.28;1.10;;;16.00;69.60;;;;;;5056169;28;20509;-20
2022/02/21 07:33:14;;;;;;;2.58;1.40;;;16.00;69.80;;;;;;5074802;28;20409;-21
2022/02/21 07:35:40;;;;;;;4.05;1.48;;;16.00;69.80;;;;;;5066036;28;20040;-21
2022/02/21 07:38:06;;;;;;;5.82;2.10;;;16.00;69.70;;;;;;5073395;28;20055;-20
2022/02/21 07:40:31;;;;;;;7.43;1.88;;;16.00;69.30;;;;;;5061125;28;20048;-20
2022/02/21 07:42:57;;;;;;;5.63;2.42;;;16.10;69.30;;;;;;5065590;28;20053;-20
2022/02/21 07:45:24;;;;;;;11.75;3.13;;;16.10;69.70;;;;;;5075746;28;20054;-21
2022/02/21 07:47:57;;;;;;;5.97;2.75;;;16.20;69.70;;;;;;5074936;28;20397;-21
2022/02/21 07:50:23;;;;;;;8.07;2.83;;;16.20;69.40;;;;;;5072803;28;20060;-21
2022/02/21 07:52:49;;;;;;;5.38;2.50;;;16.10;69.50;;;;;;5065800;28;20048;-21
2022/02/21 07:55:14;;;;;;;3.85;1.90;;;16.10;69.60;;;;;;5066279;28;20075;-21
2022/02/21 07:57:43;;;;;;;6.43;2.10;;;16.20;69.40;;;;;;5072360;28;20516;-21
2022/02/21 08:00:10;;;;;;;3.63;2.33;;;16.10;69.50;;;;;;5064386;28;20162;-21
2022/02/21 08:02:37;;;;;;;4.93;2.45;;;16.10;69.30;;;;;;5074663;28;20044;-22
2022/02/21 08:05:03;;;;;;;7.45;2.30;;;16.10;69.10;;;;;;5064701;28;20071;-23
2022/02/21 08:07:29;;;;;;;6.93;2.17;;;16.10;69.10;;;;;;5074811;28;20050;-21
2022/02/21 08:09:54;;;;;;;4.43;2.65;;;16.10;69.30;;;;;;5072896;28;20051;-21
2022/02/21 08:12:20;;;;;;;3.97;2.08;;;16.10;69.10;;;;;;5066852;28;20046;-21
2022/02/21 08:14:45;;;;;;;4.20;2.45;;;16.10;69.20;;;;;;5063909;28;20113;-21
2022/02/21 08:17:11;;;;;;;3.70;1.90;;;16.10;69.00;;;;;;5065217;28;20036;-21
2022/02/21 08:19:37;;;;;;;3.53;2.25;;;16.10;69.20;;;;;;5061734;28;20045;-21
2022/02/21 08:22:02;;;;;;;4.40;1.90;;;16.10;68.70;;;;;;5059858;28;20056;-22
2022/02/21 08:24:28;;;;;;;2.95;1.52;;;16.10;68.50;;;;;;5065761;28;20053;-21
2022/02/21 08:26:54;;;;;;;3.53;1.92;;;16.10;68.50;;;;;;5065957;28;20142;-21
2022/02/21 08:29:20;;;;;;;2.90;1.98;;;16.10;68.70;;;;;;5065365;28;20123;-21
2022/02/21 08:31:46;;;;;;;3.40;1.70;;;16.10;68.70;;;;;;5064082;28;20056;-22
2022/02/21 08:34:13;;;;;;;3.72;2.22;;;16.10;68.40;;;;;;5065144;28;20056;-21
2022/02/21 08:36:40;;;;;;;4.20;1.60;;;16.10;68.20;;;;;;5062308;28;20584;-20
2022/02/21 08:39:06;;;;;;;3.63;1.90;;;16.10;68.00;;;;;;5063601;28;20041;-23
2022/02/21 08:41:31;;;;;;;3.80;1.88;;;16.10;68.40;;;;;;5063148;28;20082;-21
2022/02/21 08:43:57;;;;;;;2.75;1.58;;;16.10;68.20;;;;;;5063830;28;20432;-20
2022/02/21 08:46:23;;;;;;;2.85;1.60;;;16.10;68.20;;;;;;5063564;28;20040;-22
2022/02/21 08:48:49;;;;;;;3.13;1.92;;;16.20;68.20;;;;;;5061922;28;20049;-22
2022/02/21 08:51:15;;;;;;;2.15;1.30;;;16.20;68.00;;;;;;5061909;28;20119;-21
2022/02/21 08:53:40;;;;;;;4.03;1.80;;;16.20;67.90;;;;;;5068711;28;20068;-21
2022/02/21 08:56:06;;;;;;;3.47;1.75;;;16.10;67.90;;;;;;5069246;28;20044;-21
2022/02/21 08:58:32;;;;;;;4.90;1.83;;;16.10;67.80;;;;;;5064884;28;20041;-21
2022/02/21 09:00:57;;;;;;;2.10;1.65;;;16.10;67.80;;;;;;5072192;28;20040;-21
2022/02/21 09:03:26;;;;;;;3.33;1.70;;;16.10;68.00;;;;;;5071775;28;20106;-21
2022/02/21 09:05:52;;;;;;;2.42;1.50;;;16.10;68.00;;;;;;5058475;28;20055;-20
2022/02/21 09:08:18;;;;;;;2.05;1.70;;;16.10;68.00;;;;;;5054726;28;20552;-20
2022/02/21 09:10:44;;;;;;;2.97;1.85;;;16.00;68.00;;;;;;5057884;28;20110;-21
2022/02/21 09:13:10;;;;;;;2.58;1.60;;;16.10;68.00;;;;;;5058764;28;20531;-21
2022/02/21 09:15:35;;;;;;;2.08;1.17;;;16.10;68.00;;;;;;5059919;28;20041;-22
2022/02/21 09:18:04;;;;;;;3.75;1.85;;;16.10;67.90;;;;;;5078517;28;20056;-21
2022/02/21 09:20:30;;;;;;;2.45;1.70;;;16.00;67.90;;;;;;5077758;28;20036;-23
2022/02/21 09:22:55;;;;;;;2.00;1.35;;;16.10;68.80;;;;;;5060055;28;20076;-21
2022/02/21 09:25:21;;;;;;;2.22;1.63;;;16.20;68.10;;;;;;5056723;28;20094;-21
2022/02/21 09:27:47;;;;;;;1.90;1.17;;;16.10;68.00;;;;;;5057565;28;20045;-21
2022/02/21 09:30:13;;;;;;;1.63;1.38;;;16.10;67.90;;;;;;5064006;28;20049;-21
2022/02/21 09:32:38;;;;;;;2.13;1.38;;;16.20;67.70;;;;;;5057646;28;20064;-21
2022/02/21 09:35:05;;;;;;;2.42;1.30;;;16.20;68.20;;;;;;5058465;28;20041;-21
2022/02/21 09:37:30;;;;;;;2.72;1.48;;;16.20;68.30;;;;;;5058219;28;20045;-22
2022/02/21 09:39:56;;;;;;;4.63;1.77;;;16.20;68.30;;;;;;5062289;28;20056;-21
2022/02/21 09:42:22;;;;;;;2.13;1.15;;;16.20;68.70;;;;;;5070196;28;20400;-20
2022/02/21 09:44:48;;;;;;;4.15;1.38;;;16.20;68.40;;;;;;5057788;28;20048;-21
2022/02/21 09:47:17;;;;;;;2.30;1.50;;;16.20;68.40;;;;;;5058042;28;20037;-21
2022/02/21 09:49:42;;;;;;;2.30;1.58;;;16.20;68.70;;;;;;5057197;28;20040;-21
2022/02/21 09:52:08;;;;;;;2.20;1.40;;;16.20;68.50;;;;;;5057913;28;20045;-21
2022/02/21 09:54:33;;;;;;;3.33;1.40;;;16.20;68.70;;;;;;5057227;28;20033;-21
2022/02/21 09:56:59;;;;;;;3.25;1.73;;;16.20;68.20;;;;;;5057625;28;20036;-21
2022/02/21 09:59:25;;;;;;;2.58;1.40;;;16.20;68.10;;;;;;5057844;28;20424;-21
2022/02/21 10:01:50;;;;;;;2.40;1.45;;;16.20;68.40;;;;;;5055900;28;20118;-21
2022/02/21 10:04:27;;;;;;;2.25;1.38;;;16.20;68.50;;;;;;5064961;28;20123;-21
2022/02/21 10:06:54;;;;;;;3.00;1.30;;;16.20;68.00;;;;;;5070475;28;20056;-21
2022/02/21 10:09:20;;;;;;;1.83;1.10;;;16.20;68.20;;;;;;5066582;28;20064;-20
2022/02/21 10:11:46;;;;;;;1.65;1.40;;;16.20;68.30;;;;;;5055260;28;20047;-21
2022/02/21 10:14:18;;;;;;;2.03;1.15;;;16.30;68.20;;;;;;5066753;28;20045;-21
2022/02/21 10:16:52;;;;;;;2.42;1.30;;;16.30;68.10;;;;;;5066530;28;20040;-21
2022/02/21 10:19:25;;;;;;;2.20;1.40;;;16.30;68.10;;;;;;5065417;28;20414;-21
2022/02/21 10:21:59;;;;;;;1.50;0.88;;;16.20;67.80;;;;;;5065452;28;20048;-22
2022/02/21 10:24:46;;;;;;;4.28;1.60;;;16.20;68.40;;;;;;5066378;28;20147;-21
2022/02/21 10:27:15;;;;;;;2.63;1.08;;;16.20;68.60;;;;;;5063923;28;20048;-21
2022/02/21 10:30:00;;;;;;;1.90;1.35;;;16.20;68.20;;;;;;5066113;28;20044;-21
2022/02/21 10:32:33;;;;;;;4.32;1.27;;;16.30;68.10;;;;;;5066308;28;20044;-21
2022/02/21 10:35:17;;;;;;;1.65;1.38;;;16.30;68.20;;;;;;5064262;28;20128;-20
2022/02/21 10:37:45;;;;;;;2.10;1.35;;;16.40;68.00;;;;;;5064031;28;20056;-21
2022/02/21 10:40:28;;;;;;;4.20;1.35;;;16.40;68.10;;;;;;5065542;28;20051;-21
2022/02/21 10:43:05;;;;;;;2.63;1.23;;;16.40;68.10;;;;;;5057433;28;20086;-21
2022/02/21 10:45:31;;;;;;;2.67;1.00;;;16.40;68.10;;;;;;5065702;28;20082;-22
2022/02/21 10:48:00;;;;;;;3.00;1.10;;;16.40;68.00;;;;;;5070018;28;20071;-22
2022/02/21 10:50:27;;;;;;;1.35;1.13;;;16.40;68.20;;;;;;5067572;28;20041;-22
2022/02/21 10:52:52;;;;;;;1.55;1.20;;;16.40;68.00;;;;;;5070764;28;20037;-22
2022/02/21 10:55:18;;;;;;;3.80;1.10;;;16.40;67.80;;;;;;5063742;28;20075;-21
2022/02/21 10:57:44;;;;;;;2.25;1.35;;;16.40;67.80;;;;;;5075984;28;20051;-21
2022/02/21 11:00:11;;;;;;;1.80;1.00;;;16.40;67.80;;;;;;5076855;28;20049;-22
2022/02/21 11:02:40;;;;;;;1.50;1.10;;;16.40;67.80;;;;;;5067025;28;20041;-21
2022/02/21 11:05:10;;;;;;;1.80;1.30;;;16.40;67.70;;;;;;5065667;28;20135;-21
2022/02/21 11:07:38;;;;;;;1.65;1.10;;;16.40;67.80;;;;;;5068653;28;20127;-21
2022/02/21 11:10:04;;;;;;;2.00;1.40;;;16.40;67.60;;;;;;5073570;28;20063;-21
2022/02/21 11:12:34;;;;;;;2.90;1.80;;;16.40;67.70;;;;;;5063769;28;20043;-21
2022/02/21 11:15:01;;;;;;;2.45;1.20;;;16.40;67.70;;;;;;5061620;28;20108;-21
2022/02/21 11:17:27;;;;;;;1.33;1.23;;;16.40;67.70;;;;;;5064752;28;20048;-21
2022/02/21 11:19:52;;;;;;;1.23;0.90;;;16.40;67.80;;;;;;5075770;28;20037;-21
2022/02/21 11:22:18;;;;;;;1.83;1.20;;;16.40;67.70;;;;;;5073806;28;20048;-21
2022/02/21 11:24:53;;;;;;;2.00;1.33;;;16.50;67.80;;;;;;4706494;28;10000083;-21
2022/02/21 11:27:25;;;;;;;1.60;1.02;;;16.40;67.60;;;;;;5067781;28;20114;-21
2022/02/21 11:30:04;;;;;;;1.38;1.00;;;16.40;67.60;;;;;;4713782;28;10000505;-20
2022/02/21 11:32:30;;;;;;;2.55;1.55;;;16.40;67.60;;;;;;5071063;28;20055;-21
2022/02/21 11:35:15;;;;;;;3.33;1.77;;;16.40;67.60;;;;;;5061912;28;20040;-21
2022/02/21 11:37:41;;;;;;;2.63;1.30;;;16.40;68.20;;;;;;5058806;28;20703;-21
2022/02/21 11:40:07;;;;;;;2.92;1.40;;;16.40;68.00;;;;;;5071233;28;20421;-21
2022/02/21 11:42:33;;;;;;;1.40;1.10;;;16.40;67.60;;;;;;5058856;28;20051;-21
2022/02/21 11:45:00;;;;;;;4.45;1.35;;;16.40;68.10;;;;;;5071504;28;20070;-20
2022/02/21 11:47:42;;;;;;;2.88;1.52;;;16.40;68.50;;;;;;5067388;28;20531;-21
2022/02/21 11:50:17;;;;;;;2.83;1.50;;;16.40;68.40;;;;;;5067995;28;20075;-21
2022/02/21 11:52:48;;;;;;;2.13;1.35;;;16.50;68.70;;;;;;5070597;28;20037;-21
2022/02/21 11:55:29;;;;;;;3.10;1.33;;;16.50;68.00;;;;;;5071890;28;20051;-21
2022/02/21 11:58:18;;;;;;;1.25;1.00;;;16.50;68.00;;;;;;5071202;28;20040;-21
2022/02/21 12:00:44;;;;;;;2.95;1.10;;;16.50;68.90;;;;;;5070498;28;20792;-21
2022/02/21 12:03:15;;;;;;;1.98;1.50;;;16.50;69.50;;;;;;5068829;28;20090;-21
2022/02/21 12:05:41;;;;;;;2.00;1.20;;;16.50;69.20;;;;;;5066138;28;20186;-21
2022/02/21 12:08:31;;;;;;;3.10;1.30;;;16.50;69.80;;;;;;5069917;28;20475;-22
2022/02/21 12:11:17;;;;;;;1.55;1.17;;;16.50;68.90;;;;;;5065661;28;20106;-21
2022/02/21 12:13:47;;;;;;;2.38;1.55;;;16.50;68.90;;;;;;5071339;28;20508;-21
2022/02/21 12:16:13;;;;;;;2.47;1.40;;;16.50;68.90;;;;;;5071547;28;20040;-21
2022/02/21 12:18:45;;;;;;;1.83;1.60;;;16.50;68.60;;;;;;5063696;28;20060;-21
2022/02/21 12:21:17;;;;;;;1.13;0.95;;;16.50;68.60;;;;;;5063716;28;20576;-21
2022/02/21 12:23:58;;;;;;;1.55;1.30;;;16.50;68.30;;;;;;5062451;28;20049;-21
2022/02/21 12:26:40;;;;;;;1.58;1.10;;;16.50;68.90;;;;;;5062325;28;20574;-21
2022/02/21 12:29:24;;;;;;;3.30;1.38;;;16.50;68.60;;;;;;5062394;28;20048;-21
2022/02/21 12:32:18;;;;;;;1.67;1.10;;;16.50;68.20;;;;;;5060668;28;20052;-21
2022/02/21 12:34:44;;;;;;;2.10;1.55;;;16.50;68.40;;;;;;5065968;28;20094;-21
2022/02/21 12:37:11;;;;;;;2.70;1.27;;;16.50;68.00;;;;;;5065398;28;20061;-21
2022/02/21 12:39:43;;;;;;;3.40;1.67;;;16.60;68.00;;;;;;5062849;28;20040;-21
2022/02/21 12:42:09;;;;;;;1.67;1.00;;;16.60;68.30;;;;;;5063049;28;20044;-21
2022/02/21 12:44:34;;;;;;;1.40;1.20;;;16.50;68.20;;;;;;5067096;28;20037;-21